Date,TemperatureHighF,TemperatureAvgF,TemperatureLowF,DewpointHighF,DewpointAvgF,DewpointLowF,HumidityHigh,HumidityAvg,HumidityLow,PressureMaxIn,PressureMinIn,WindSpeedMaxMPH,WindSpeedAvgMPH,GustSpeedMaxMPH,PrecipitationSumIn
2013-1-1,50,48,44,48,41,30,93,80,53,30.15,29.98,3,0,0,0.31
2013-1-2,51,48,45,47,44,40,94,86,73,30.18,29.94,5,0,0,0.11
2013-1-3,45,40,30,41,35,27,92,83,75,30.33,30.13,2,0,0,0.00
2013-1-4,52,36,23,32,24,18,92,67,34,30.40,30.28,5,0,0,0.00
2013-1-5,48,37,23,33,24,19,89,62,38,30.44,30.28,3,0,0,0.00
2013-1-6,56,44,38,42,37,29,88,77,60,30.28,30.07,2,0,0,0.02
2013-1-7,52,39,28,31,28,25,91,68,39,30.46,30.24,4,0,0,0.00
2013-1-8,52,40,27,41,33,24,91,77,59,30.51,30.40,2,0,0,0.00
2013-1-9,63,52,39,54,46,37,91,81,65,30.49,30.40,3,0,0,0.00
2013-1-10,68,56,46,52,47,41,94,76,55,30.53,30.38,3,0,0,0.00
2013-1-11,55,48,47,47,46,45,93,91,72,30.39,30.19,2,0,0,0.14
2013-1-12,72,59,49,65,56,47,94,89,73,30.20,30.10,5,0,0,0.01
2013-1-13,71,62,55,63,58,53,94,87,71,30.15,30.06,8,1,0,0.00
2013-1-14,66,64,61,64,62,59,94,93,92,30.14,30.06,2,0,0,0.22
2013-1-15,62,49,42,60,47,40,93,92,91,30.19,30.09,6,1,0,0.21
2013-1-16,50,46,42,49,44,40,96,93,92,30.09,30.00,3,0,0,0.28
2013-1-17,51,46,34,50,44,32,94,93,90,30.22,29.82,13,2,0,2.27
2013-1-18,50,37,29,34,28,23,93,72,35,30.55,30.23,3,0,0,0.03
2013-1-19,55,37,24,32,27,22,93,70,34,30.54,30.21,4,0,0,0.00
2013-1-20,65,46,30,36,29,24,89,57,23,30.21,30.05,7,1,0,0.00
2013-1-21,61,43,27,35,25,14,91,56,25,30.12,29.96,13,1,0,0.00
2013-1-22,42,35,25,16,9,-2,55,36,16,30.30,30.05,7,0,0,0.00
2013-1-23,47,33,21,27,18,7,80,55,33,30.40,30.11,10,1,0,0.00
2013-1-24,50,40,25,32,18,5,77,44,21,30.54,30.02,9,2,0,0.00
2013-1-25,27,25,20,24,16,8,89,70,45,30.55,30.18,4,0,0,0.00
2013-1-26,49,34,25,35,29,23,92,82,50,30.41,30.16,3,0,0,0.02
2013-1-27,45,37,26,32,28,23,91,71,50,30.61,30.41,4,0,0,0.00
2013-1-28,53,43,37,44,36,30,91,76,66,30.51,30.29,4,0,0,0.00
2013-1-29,71,56,40,59,50,38,94,81,63,30.29,30.04,6,1,0,0.00
2013-1-30,71,64,50,62,59,45,92,84,69,30.03,29.47,12,2,0,1.36
2013-1-31,50,43,34,45,26,18,85,54,32,30.06,29.56,17,3,0,0.00
2013-2-1,41,36,25,29,15,7,62,43,27,30.41,29.95,13,2,0,0.00
2013-2-2,44,33,21,34,19,10,83,61,29,30.44,30.09,10,2,0,0.00
2013-2-3,53,42,31,35,27,19,89,60,28,30.09,29.91,11,2,0,0.00
2013-2-4,52,39,26,28,24,20,81,57,33,30.18,30.04,6,0,0,0.00
2013-2-5,65,48,35,41,34,28,87,61,36,30.04,29.91,8,1,0,0.00
2013-2-6,65,48,31,38,30,19,93,58,18,30.25,30.02,5,0,0,0.00
2013-2-7,44,41,39,38,33,26,91,74,53,30.30,30.05,7,2,0,0.67
2013-2-8,60,47,37,48,37,27,93,72,44,30.15,29.91,8,1,0,0.03
2013-2-9,61,44,31,27,23,16,78,49,19,30.37,30.14,3,0,0,0.00
2013-2-10,58,44,33,43,30,23,91,63,27,30.47,30.20,4,0,0,0.15
2013-2-11,57,51,44,55,48,41,94,92,89,30.20,29.99,7,1,0,0.11
2013-2-12,59,49,38,48,38,28,93,68,32,30.13,29.93,1,0,0,0.02
2013-2-13,49,45,40,46,41,32,92,87,68,29.98,29.69,4,0,0,0.05
2013-2-14,53,41,29,35,31,26,91,71,48,30.10,29.91,6,1,0,0.00
2013-2-15,62,45,27,38,32,25,93,65,32,30.14,29.96,7,1,0,0.00
2013-2-16,46,37,30,31,28,16,89,69,55,30.06,29.86,4,0,0,0.02
2013-2-17,43,31,19,18,13,8,76,50,24,30.31,30.06,5,1,0,0.02
2013-2-18,56,38,20,27,21,13,85,54,30,30.43,30.25,7,1,0,0.00
2013-2-19,52,43,36,44,32,14,92,68,26,30.26,29.91,6,1,0,0.16
2013-2-20,56,41,25,24,15,5,76,40,13,30.15,30.06,5,0,0,0.00
2013-2-21,59,42,25,38,20,10,87,45,19,30.28,30.13,5,0,0,0.06
2013-2-22,42,39,38,38,36,35,92,90,87,30.34,30.16,3,0,0,0.32
2013-2-23,45,41,37,42,38,35,93,91,87,30.18,29.89,4,0,0,0.38
2013-2-24,64,49,38,44,36,26,94,67,27,30.05,29.89,5,1,0,0.00
2013-2-25,44,42,39,29,27,25,62,57,52,30.21,30.04,6,1,0,0.00
2013-2-26,40,36,33,38,33,26,93,89,61,30.12,29.65,10,2,0,1.15
2013-2-27,57,46,32,40,37,30,94,72,49,29.85,29.69,7,1,0,0.00
2013-2-28,50,41,31,34,28,24,89,63,39,29.94,29.76,7,1,0,0.00
2013-3-1,48,38,26,32,27,23,90,68,49,29.98,29.91,6,0,0,0.00
2013-3-2,48,39,29,37,30,22,91,72,50,29.98,29.86,4,0,0,0.13
2013-3-3,46,33,22,22,19,16,85,59,34,30.07,29.94,5,1,0,0.00
2013-3-4,56,40,24,25,18,13,73,45,19,30.19,30.06,8,1,0,0.00
2013-3-5,42,42,42,23,23,23,48,48,47,30.09,30.09,0,0,0,0.00
2013-3-6,43,35,29,26,25,24,81,69,52,30.16,30.04,3,0,0,0.01
2013-3-7,57,40,24,31,26,21,91,62,33,30.31,30.16,6,1,0,0.00
2013-3-8,59,41,25,27,23,19,88,54,21,30.37,30.24,6,1,0,0.00
2013-3-9,64,46,27,36,29,23,86,55,28,30.40,30.27,5,0,0,0.00
2013-3-10,67,52,35,38,35,31,87,57,29,30.33,30.19,5,0,0,0.00
2013-3-11,69,56,41,54,44,35,91,67,50,30.21,29.87,9,1,0,0.26
2013-3-12,68,58,44,56,45,27,93,66,22,30.01,29.76,8,1,0,0.22
2013-3-13,56,44,33,32,26,18,82,53,26,30.20,30.01,12,1,0,0.00
2013-3-14,54,40,28,23,18,13,67,43,20,30.34,30.20,8,1,0,0.00
2013-3-15,69,48,28,41,30,20,79,54,32,30.25,29.94,6,1,0,0.00
2013-3-16,78,64,52,48,44,41,71,51,33,29.94,29.74,9,2,0,0.00
2013-3-17,78,61,45,53,45,39,78,57,34,30.10,29.85,9,1,0,0.00
2013-3-18,45,41,40,40,38,37,92,89,79,30.15,29.91,6,1,0,0.40
2013-3-19,65,51,40,44,31,18,94,57,17,30.09,29.89,14,1,0,0.00
2013-3-20,58,49,43,22,16,9,39,28,18,30.14,29.82,10,1,0,0.00
2013-3-21,46,37,26,28,15,11,67,42,26,30.01,29.84,12,2,0,0.00
2013-3-22,52,38,24,26,19,14,78,48,26,30.14,30.01,6,1,0,0.00
2013-3-23,56,45,39,42,36,25,89,72,47,30.09,29.93,5,0,0,0.02
2013-3-24,44,42,40,41,39,37,91,89,85,29.98,29.59,6,1,0,0.89
2013-3-25,48,41,36,37,28,20,93,63,36,29.94,29.59,14,3,0,0.05
2013-3-26,48,39,28,27,24,22,79,57,40,30.23,29.95,9,1,0,0.00
2013-3-27,54,42,27,27,23,21,80,49,32,30.31,30.22,6,1,0,0.00
2013-3-28,59,42,25,27,23,19,84,51,23,30.35,30.23,7,1,0,0.00
2013-3-29,64,46,26,39,28,23,87,54,23,30.39,30.22,8,1,0,0.00
2013-3-30,65,52,45,46,42,38,92,72,42,30.27,30.06,4,0,0,0.26
2013-3-31,72,58,50,57,51,44,93,80,54,30.07,29.83,9,1,0,0.31
2013-4-1,72,61,52,53,44,36,92,59,28,29.98,29.86,10,1,0,0.00
2013-4-2,65,54,40,36,30,17,79,43,17,30.18,29.98,9,1,0,0.00
2013-4-3,60,53,43,30,24,17,45,33,24,30.30,30.14,6,1,0,0.00
2013-4-4,50,42,37,37,31,23,91,68,38,30.30,30.02,5,2,0,0.78
2013-4-5,66,51,37,46,40,34,93,69,35,30.09,29.94,5,1,0,0.00
2013-4-6,71,55,36,41,36,32,90,54,24,30.25,30.08,4,0,0,0.00
2013-4-7,72,59,43,49,45,39,87,61,40,30.27,30.11,8,1,0,0.00
2013-4-8,78,64,50,57,51,45,92,67,40,30.18,30.06,9,1,0,0.00
2013-4-9,83,69,53,60,55,50,91,63,40,30.21,30.09,6,1,0,0.00
2013-4-10,86,71,57,62,57,54,89,65,40,30.11,29.95,7,1,0,0.00
2013-4-11,81,69,58,66,61,55,92,76,52,29.98,29.74,5,1,0,0.13
2013-4-12,80,69,58,66,56,39,94,67,30,29.83,29.64,10,2,0,1.28
2013-4-13,78,61,42,47,40,34,91,50,20,30.04,29.84,4,0,0,0.00
2013-4-14,76,60,44,52,45,38,87,59,31,30.11,30.00,4,0,0,0.00
2013-4-15,66,60,56,60,56,53,92,86,77,30.22,30.00,4,0,0,0.07
2013-4-16,79,66,57,62,58,54,92,76,50,30.31,30.19,4,0,0,0.00
2013-4-17,80,67,58,64,59,55,92,77,53,30.26,30.12,7,0,0,0.00
2013-4-18,79,69,59,63,60,56,93,76,50,30.17,29.98,5,0,0,0.00
2013-4-19,75,66,54,66,61,51,91,85,71,29.98,29.75,7,1,0,0.39
2013-4-20,65,53,39,50,36,29,88,57,27,30.29,29.92,6,1,0,0.00
2013-4-21,64,52,41,42,38,32,80,59,39,30.47,30.29,6,1,0,0.00
2013-4-22,64,52,42,40,36,32,85,58,33,30.46,30.25,9,1,0,0.00
2013-4-23,73,56,40,50,43,34,84,65,38,30.30,30.12,6,0,0,0.00
2013-4-24,73,62,49,58,53,46,93,76,54,30.16,30.02,10,1,0,0.00
2013-4-25,72,60,50,57,43,33,90,57,27,30.30,30.07,3,0,0,0.00
2013-4-26,72,57,41,46,38,33,84,51,27,30.46,30.31,6,0,0,0.00
2013-4-27,63,56,54,54,51,44,92,81,62,30.38,30.27,1,0,0,0.41
2013-4-28,55,54,54,54,52,52,94,93,93,30.28,30.06,3,0,5,2.02
2013-4-29,72,61,55,62,57,53,94,86,63,30.08,29.95,5,0,7,0.09
2013-4-30,74,63,54,63,58,51,94,83,61,30.19,30.00,4,0,9,0.00
2013-5-1,66,60,52,57,54,49,93,84,70,30.31,30.19,4,0,10,0.00
2013-5-2,62,58,56,57,55,54,93,88,82,30.32,30.25,3,0,8,0.11
2013-5-3,66,60,56,55,53,49,91,77,64,30.26,30.12,7,1,12,0.00
2013-5-4,60,55,50,51,47,43,87,75,66,30.14,30.00,6,1,13,0.00
2013-5-5,59,52,50,57,50,47,93,92,88,30.06,29.84,6,2,13,2.50
2013-5-6,69,60,52,59,53,47,94,79,49,29.92,29.84,4,0,10,0.83
2013-5-7,71,56,43,54,48,41,94,78,41,29.97,29.88,4,0,12,0.00
2013-5-8,75,62,50,59,54,48,94,76,51,30.03,29.94,3,0,9,0.01
2013-5-9,82,65,50,60,55,47,94,73,39,30.11,30.01,4,0,9,0.00
2013-5-10,82,68,54,66,59,51,94,74,48,30.09,29.96,9,1,13,0.00
2013-5-11,79,69,62,64,61,58,92,76,56,29.97,29.80,5,1,11,0.07
2013-5-12,74,62,49,60,46,31,93,62,22,30.07,29.85,3,0,10,0.00
2013-5-13,70,55,39,43,36,31,90,55,24,30.22,30.07,5,1,10,0.00
2013-5-14,73,58,40,49,41,36,89,57,34,30.29,30.09,8,1,11,0.00
2013-5-15,89,70,51,65,57,48,92,66,40,30.11,29.94,4,0,9,0.00
2013-5-16,83,70,56,64,59,54,92,71,43,30.03,29.95,1,0,5,0.00
2013-5-17,84,72,58,66,61,56,94,71,46,30.09,30.01,3,0,8,0.00
2013-5-18,70,67,63,66,64,60,92,89,80,30.15,30.06,4,0,7,0.27
2013-5-19,77,70,66,69,66,63,93,87,75,30.12,30.02,5,0,5,0.14
2013-5-20,83,72,65,70,66,63,94,84,58,30.15,30.01,2,0,4,0.13
2013-5-21,88,50,64,72,10,-100,92,49,52,30.05,29.93,3,-343,10,0.00
2013-5-22,85,31,72,71,-35,-100,83,25,58,30.00,29.86,8,-613,11,0.00
2013-5-23,81,25,70,69,-44,-100,86,25,66,29.98,29.82,3,-662,7,0.00
2013-5-24,74,34,66,57,-29,-100,70,22,31,30.21,29.89,8,-520,17,0.01
2013-5-25,78,40,55,52,-16,-100,75,26,30,30.31,30.16,4,-426,8,0.00
2013-5-26,76,64,54,55,49,42,83,60,41,30.31,30.18,4,0,5,0.00
2013-5-27,82,68,52,61,56,50,93,69,44,30.29,30.14,3,0,9,0.00
2013-5-28,84,72,62,67,62,59,91,73,51,30.25,30.15,4,0,10,0.00
2013-5-29,84,73,60,67,62,57,92,70,45,30.25,30.16,4,0,10,0.00
2013-5-30,84,72,60,67,62,57,93,73,45,30.28,30.17,5,0,8,0.00
2013-5-31,85,74,64,69,65,61,92,75,50,30.24,30.11,3,0,9,0.00
2013-6-1,85,75,67,68,66,64,92,74,50,30.13,30.01,3,0,10,0.03
2013-6-2,79,73,67,71,68,64,92,83,71,30.05,29.90,5,0,9,0.25
2013-6-3,83,72,66,72,67,64,94,84,64,29.96,29.85,2,0,6,0.20
2013-6-4,83,73,65,70,66,63,93,78,60,30.07,29.95,4,0,8,0.03
2013-6-5,79,71,65,70,66,62,92,85,73,30.11,29.98,5,0,9,0.20
2013-6-6,76,71,68,72,69,66,93,91,83,29.99,29.80,3,0,6,0.65
2013-6-7,84,72,67,73,67,64,94,87,67,29.84,29.67,4,0,7,0.25
2013-6-8,85,74,66,70,66,64,93,79,55,30.09,29.83,3,0,7,0.07
2013-6-9,86,73,66,73,68,63,93,84,59,30.14,30.03,2,0,9,0.17
2013-6-10,79,72,68,72,68,65,93,88,72,30.08,29.91,4,1,10,0.39
2013-6-11,88,76,67,70,66,63,94,74,43,30.00,29.93,3,0,6,0.02
2013-6-12,91,77,63,76,69,61,94,79,55,30.02,29.91,2,0,5,0.00
2013-6-13,92,79,70,73,69,63,94,75,46,29.89,29.66,15,0,15,0.00
2013-6-14,84,73,59,63,57,54,89,60,37,30.04,29.78,7,0,10,0.00
2013-6-15,85,71,56,64,60,54,93,69,46,30.15,30.04,4,0,7,0.00
2013-6-16,86,75,64,69,65,60,89,72,50,30.15,30.02,4,0,9,0.00
2013-6-17,85,76,71,73,69,66,91,81,65,30.04,29.94,3,0,8,0.09
2013-6-18,83,73,69,74,69,66,93,89,71,29.95,29.79,3,0,13,0.74
2013-6-19,82,74,65,69,66,63,94,78,55,30.11,29.91,4,0,8,0.01
2013-6-20,82,73,64,69,65,62,93,79,54,30.23,30.11,8,0,10,0.00
2013-6-21,85,72,62,68,63,60,93,75,52,30.29,30.18,6,0,11,0.00
2013-6-22,86,73,60,68,64,58,93,74,47,30.24,30.11,2,0,8,0.00
2013-6-23,87,75,64,72,68,62,93,79,55,30.21,30.11,4,0,8,0.00
2013-6-24,87,76,67,74,70,65,93,81,59,30.22,30.10,3,0,9,0.07
2013-6-25,89,76,69,75,70,66,93,83,55,30.14,30.01,5,0,8,0.05
2013-6-26,90,76,67,76,70,65,94,83,57,30.05,29.91,3,0,8,0.00
2013-6-27,89,78,72,79,72,70,92,84,61,29.94,29.73,3,0,7,0.14
2013-6-28,92,79,68,76,71,66,94,80,54,29.78,29.59,3,0,7,0.22
2013-6-29,87,77,68,74,70,66,94,79,55,29.71,29.62,3,0,8,0.01
2013-6-30,87,75,68,73,68,66,92,81,56,29.84,29.69,3,0,11,0.02
2013-7-1,82,74,68,72,69,66,93,83,66,29.96,29.82,4,0,9,0.02
2013-7-2,80,74,71,72,70,68,92,88,74,30.14,29.96,8,1,11,0.55
2013-7-3,79,74,68,73,70,66,93,89,78,30.23,30.11,4,0,9,0.56
2013-7-4,84,74,68,75,70,66,94,88,69,30.25,30.14,9,0,13,2.40
2013-7-5,82,73,70,75,70,67,93,91,77,30.25,30.19,4,0,16,1.08
2013-7-6,86,76,71,74,71,69,93,85,62,30.24,30.10,5,1,9,0.31
2013-7-7,85,77,72,76,72,70,93,87,70,30.18,30.06,2,0,8,0.18
2013-7-8,86,77,71,74,72,69,92,85,63,30.20,30.10,4,0,6,0.60
2013-7-9,91,78,69,77,72,67,93,81,59,30.17,30.05,3,0,9,0.00
2013-7-10,85,75,69,76,71,67,93,87,71,30.13,29.95,3,0,6,0.44
2013-7-11,77,73,71,75,71,68,93,92,91,29.97,29.88,3,0,6,0.92
2013-7-12,82,74,69,73,70,67,93,87,68,29.94,29.89,3,0,9,0.01
2013-7-13,79,76,73,72,70,68,90,83,75,30.11,30.06,2,0,7,0.00
2013-7-14,85,76,72,75,71,69,92,85,66,30.28,30.11,10,1,13,0.11
2013-7-15,87,76,69,73,70,66,94,82,60,30.34,30.25,1,0,6,0.00
2013-7-16,92,79,67,76,71,65,94,78,50,30.32,30.21,0,0,4,0.00
2013-7-17,92,77,69,79,71,66,93,84,58,30.25,30.12,2,0,7,0.23
2013-7-18,89,77,67,78,71,65,94,84,64,30.18,30.07,0,0,6,0.00
2013-7-19,89,79,69,77,72,66,94,81,60,30.12,29.99,3,0,8,0.00
2013-7-20,87,76,70,77,72,68,93,87,69,30.04,29.95,3,0,10,0.91
2013-7-21,87,74,70,77,71,68,94,88,66,30.02,29.94,2,0,8,0.04
2013-7-22,85,76,70,76,72,68,94,85,68,30.01,29.84,3,0,8,0.01
2013-7-23,90,78,70,74,71,67,93,79,49,29.88,29.77,3,0,5,0.00
2013-7-24,91,78,68,77,70,66,94,80,53,29.85,29.75,2,0,8,0.52
2013-7-25,85,74,67,72,68,65,93,81,58,30.04,29.84,4,0,9,0.01
2013-7-26,85,75,67,72,68,64,93,81,62,30.11,30.01,4,0,6,0.00
2013-7-27,79,73,69,73,70,67,93,89,79,30.03,29.92,3,0,8,1.95
2013-7-28,86,75,69,74,70,66,93,84,62,30.00,29.92,4,0,6,0.00
2013-7-29,86,75,65,71,67,63,94,78,51,30.16,30.00,2,0,6,0.00
2013-7-30,85,74,66,73,67,62,91,79,59,30.23,30.13,3,0,6,0.00
2013-7-31,80,73,71,74,70,68,93,89,78,30.17,30.00,2,0,7,0.04
2013-8-1,85,75,72,75,71,69,92,87,69,29.99,29.88,3,0,7,0.57
2013-8-2,87,76,68,74,69,66,94,80,55,30.04,29.92,1,0,7,0.01
2013-8-3,87,78,71,76,71,68,94,81,55,30.03,29.94,1,0,4,0.00
2013-8-4,87,77,68,75,70,65,93,80,55,30.03,29.93,2,0,6,0.00
2013-8-5,84,74,67,72,67,63,91,80,64,30.08,29.98,4,0,5,0.00
2013-8-6,75,72,68,71,68,66,93,90,84,30.07,29.98,3,0,5,0.48
2013-8-7,82,75,71,74,71,68,92,87,71,30.09,30.01,3,0,8,0.01
2013-8-8,86,77,72,77,73,69,92,85,70,30.07,30.00,5,0,6,0.05
2013-8-9,90,78,72,78,73,70,94,86,65,30.07,30.00,4,0,8,0.02
2013-8-10,90,77,72,79,73,70,94,88,66,30.12,30.05,3,0,12,0.17
2013-8-11,91,77,69,77,72,67,94,84,59,30.13,30.04,1,0,3,0.01
2013-8-12,91,79,70,78,73,68,94,83,62,30.07,29.95,1,0,3,0.00
2013-8-13,88,77,71,76,72,69,94,84,62,29.97,29.81,2,0,4,0.00
2013-8-14,79,72,65,70,66,61,92,81,60,30.08,29.87,4,0,8,0.00
2013-8-15,74,66,60,62,60,56,91,79,61,30.18,30.08,4,0,10,0.00
2013-8-16,72,65,60,63,60,57,92,85,71,30.18,30.10,4,0,7,0.03
2013-8-17,68,64,62,63,61,59,93,89,82,30.21,30.15,3,0,9,0.23
2013-8-18,80,70,64,71,66,62,94,88,71,30.24,30.15,2,0,3,0.04
2013-8-19,78,71,68,70,67,65,94,89,72,30.20,30.10,1,0,3,0.60
2013-8-20,79,72,66,72,68,64,94,87,73,30.20,30.12,0,0,2,0.00
2013-8-21,80,73,70,75,70,68,94,91,77,30.25,30.13,3,0,5,0.87
2013-8-22,89,77,70,74,71,67,94,83,56,30.17,30.02,0,0,0,0.01
2013-8-23,88,72,65,75,68,63,94,86,56,30.08,29.98,1,0,8,0.21
2013-8-24,81,70,62,67,62,59,93,77,51,30.31,30.08,4,0,12,0.01
2013-8-25,80,68,59,66,61,57,94,78,50,30.41,30.30,1,0,7,0.00
2013-8-26,84,69,57,68,62,55,94,80,54,30.35,30.14,0,0,3,0.00
2013-8-27,89,74,62,75,67,60,94,81,55,30.16,30.01,0,0,0,0.00
2013-8-28,88,76,66,76,70,64,94,83,61,30.04,29.93,0,0,0,0.00
2013-8-29,92,79,70,77,72,68,94,79,52,29.98,29.89,1,0,8,0.00
2013-8-30,86,77,72,73,70,69,92,82,61,30.06,29.94,2,0,5,0.03
2013-8-31,89,74,68,77,69,66,94,87,61,29.98,29.88,7,0,14,0.78
2013-9-1,88,74,66,77,70,64,94,86,67,29.93,29.80,8,0,13,0.03
2013-9-2,90,80,69,77,74,67,94,82,62,29.92,29.81,1,0,4,0.00
2013-9-3,88,77,69,73,69,65,93,79,46,29.97,29.82,3,0,4,0.00
2013-9-4,87,73,63,71,66,61,93,80,51,30.11,29.97,2,0,5,0.00
2013-9-5,87,74,64,71,66,62,94,80,51,30.13,30.05,3,0,4,0.01
2013-9-6,84,71,62,67,63,60,92,77,52,30.20,30.09,4,0,9,0.00
2013-9-7,84,71,62,69,64,59,93,81,57,30.15,30.00,2,0,4,0.00
2013-9-8,88,73,62,72,67,60,94,82,53,30.01,29.94,0,0,2,0.00
2013-9-9,88,75,66,73,68,64,94,80,52,30.15,30.01,6,0,9,0.00
2013-9-10,89,75,65,73,68,63,94,81,51,30.25,30.14,0,0,0,0.00
2013-9-11,89,75,65,74,69,63,94,81,51,30.23,30.09,2,0,3,0.00
2013-9-12,88,74,67,75,68,65,93,83,56,30.09,29.86,2,0,8,0.00
2013-9-13,85,72,63,68,63,53,93,73,46,29.92,29.80,2,0,8,0.00
2013-9-14,78,64,55,61,55,50,89,72,48,30.14,29.92,6,0,7,0.00
2013-9-15,79,66,55,67,60,53,93,83,62,30.24,30.13,3,0,5,0.00
2013-9-16,85,72,61,70,63,59,93,76,46,30.16,30.06,3,0,6,0.00
2013-9-17,74,68,62,61,58,56,81,72,59,30.32,30.17,3,0,7,0.00
2013-9-18,74,66,59,62,58,54,87,76,58,30.32,30.18,3,0,7,0.00
2013-9-19,82,69,60,67,62,58,93,79,55,30.20,30.09,0,0,3,0.00
2013-9-20,87,72,60,70,65,58,94,80,51,30.10,29.92,2,0,7,0.00
2013-9-21,73,67,63,70,65,61,94,92,89,29.94,29.70,3,0,8,1.90
2013-9-22,78,67,56,62,58,54,94,75,46,29.87,29.73,5,0,8,0.01
2013-9-23,76,65,56,62,58,53,92,77,56,30.07,29.98,3,0,8,0.00
2013-9-24,77,66,56,64,60,54,94,82,61,30.10,29.95,1,0,4,0.00
2013-9-25,70,64,62,63,61,59,93,89,74,29.96,29.89,0,0,4,0.24
2013-9-26,77,65,57,63,57,54,93,78,48,30.06,29.90,4,0,7,0.01
2013-9-27,77,63,51,60,55,49,94,77,50,30.20,30.06,5,0,9,0.00
2013-9-28,73,62,53,59,54,51,93,79,57,30.28,30.18,5,0,8,0.00
2013-9-29,74,62,52,60,55,50,92,80,56,30.21,30.05,4,0,7,0.00
2013-9-30,78,65,54,60,57,52,94,77,49,30.12,30.02,2,0,4,0.00
2013-10-1,82,66,54,63,58,51,94,78,44,30.16,30.06,0,0,2,0.00
2013-10-2,84,67,54,66,60,52,95,79,46,30.18,30.08,1,0,6,0.00
2013-10-3,84,68,57,67,61,55,94,80,49,30.15,30.07,1,0,9,0.00
2013-10-4,85,69,57,68,62,55,94,80,51,30.17,30.09,3,0,7,0.00
2013-10-5,87,70,58,69,64,56,94,81,50,30.15,30.04,0,0,2,0.00
2013-10-6,83,70,60,70,63,58,94,81,55,30.06,29.89,3,0,8,0.00
2013-10-7,76,69,59,70,64,54,94,85,70,30.01,29.81,3,0,8,2.75
2013-10-8,71,62,55,55,50,47,84,68,51,30.23,30.01,6,1,14,0.00
2013-10-9,73,59,50,51,47,45,85,67,41,30.25,30.13,4,0,11,0.00
2013-10-10,78,60,44,62,52,42,93,78,48,30.16,30.01,3,0,7,0.00
2013-10-11,81,65,53,66,57,51,93,78,48,30.02,29.93,2,0,4,0.00
2013-10-12,74,64,53,64,58,51,93,84,63,30.11,29.98,2,0,2,0.00
2013-10-13,74,66,62,63,61,60,93,85,67,30.22,30.11,5,0,9,0.04
2013-10-14,71,65,60,62,60,57,91,83,72,30.26,30.16,3,0,12,0.00
2013-10-15,74,63,57,60,56,54,91,79,52,30.22,30.07,6,0,7,0.00
2013-10-16,72,62,52,61,57,49,94,84,64,30.11,29.98,3,0,5,0.00
2013-10-17,70,65,59,64,62,57,93,90,78,29.99,29.87,3,0,5,0.08
2013-10-18,70,61,53,62,56,51,94,85,64,30.05,29.91,3,0,7,0.00
2013-10-19,63,58,50,60,56,48,94,91,86,29.99,29.87,0,0,4,0.03
2013-10-20,67,52,41,50,45,39,94,79,47,30.13,29.95,4,0,8,0.00
2013-10-21,68,53,41,55,48,39,93,82,59,30.20,30.03,3,0,6,0.00
2013-10-22,67,59,55,58,55,52,93,87,70,30.04,29.82,1,0,3,0.00
2013-10-23,65,53,39,55,42,32,94,70,32,30.07,29.76,6,1,12,0.01
2013-10-24,61,45,31,43,36,29,92,73,42,30.21,30.07,4,0,8,0.00
2013-10-25,55,43,34,39,33,28,91,70,36,30.43,30.21,4,0,9,0.00
2013-10-26,58,42,27,38,32,25,92,72,41,30.42,30.12,5,0,8,0.00
2013-10-27,69,52,37,51,43,35,93,76,49,30.18,30.09,4,0,7,0.00
2013-10-28,72,56,46,56,50,44,93,82,56,30.28,30.14,2,0,4,0.00
2013-10-29,74,60,48,57,53,46,93,79,50,30.36,30.26,2,0,9,0.00
2013-10-30,79,62,51,59,55,49,94,79,47,30.31,30.17,4,0,8,0.00
2013-10-31,67,60,55,60,56,53,93,85,73,30.20,29.95,3,0,4,0.00
2013-11-1,59,58,58,56,56,56,92,91,90,29.75,29.73,0,0,3,0.17
2013-11-2,69,62,46,53,46,39,84,59,40,30.01,29.81,3,1,11,0.02
2013-11-3,64,48,37,42,38,34,92,70,35,30.39,30.02,3,0,10,0.00
2013-11-4,60,47,38,37,35,33,86,66,37,30.56,30.40,4,0,8,0.00
2013-11-5,58,46,34,48,39,30,90,78,60,30.61,30.47,5,0,7,0.00
2013-11-6,71,57,48,55,50,46,91,80,56,30.46,30.16,3,0,6,0.00
2013-11-7,71,55,41,61,45,34,94,72,41,30.17,29.99,4,0,11,0.02
2013-11-8,62,45,34,33,28,19,86,57,21,30.35,30.18,4,0,7,0.00
2013-11-9,59,44,29,37,31,26,91,64,35,30.43,30.24,3,0,7,0.00
2013-11-10,74,52,36,43,36,32,91,59,24,30.26,30.15,4,0,8,0.00
2013-11-11,62,46,33,33,30,26,83,56,26,30.39,30.19,3,0,5,0.00
2013-11-12,67,43,29,40,30,16,90,64,32,30.51,30.10,6,1,15,0.00
2013-11-13,49,33,21,22,18,15,94,59,26,30.61,30.49,3,0,5,0.00
2013-11-14,59,37,21,26,22,18,91,60,24,30.54,30.38,3,0,7,0.00
2013-11-15,58,44,28,46,34,23,91,70,32,30.39,30.24,1,0,2,0.20
2013-11-16,62,54,48,55,51,46,93,87,75,30.31,30.22,3,0,4,0.02
2013-11-17,64,59,54,60,56,51,93,90,81,30.24,29.92,2,0,3,0.26
2013-11-18,75,62,49,62,48,31,94,64,23,30.02,29.85,6,0,9,0.00
2013-11-19,57,45,34,35,29,24,84,56,29,30.30,30.02,7,1,10,0.00
2013-11-20,53,43,34,33,31,28,78,63,42,30.49,30.29,5,1,11,0.00
2013-11-21,54,49,44,46,39,32,82,70,62,30.52,30.41,3,0,9,0.00
2013-11-22,62,56,49,57,52,46,92,88,82,30.44,30.14,3,0,4,0.03
2013-11-23,61,54,42,55,43,22,93,69,35,30.24,30.09,5,0,10,0.00
2013-11-24,44,35,27,23,12,3,57,40,19,30.56,30.25,5,1,10,0.00
2013-11-25,42,33,20,19,13,7,76,46,27,30.62,30.39,3,0,6,0.00
2013-11-26,45,38,33,43,34,18,93,87,46,30.39,29.66,4,0,8,3.22
2013-11-27,46,38,28,44,31,17,93,76,51,30.25,29.59,5,1,19,0.12
2013-11-28,45,31,20,25,21,16,89,68,38,30.53,30.26,3,0,6,0.03
2013-11-29,54,37,23,31,24,21,91,64,32,30.64,30.52,5,0,9,0.00
2013-11-30,47,36,29,27,24,22,83,65,39,30.69,30.43,5,0,9,0.00
2013-12-1,58,39,27,38,30,24,88,73,44,30.42,30.07,3,0,7,0.00
2013-12-2,60,44,28,41,35,26,93,74,43,30.07,29.86,3,0,6,0.00
2013-12-3,60,52,45,52,47,40,91,83,72,29.98,29.89,3,0,5,0.10
2013-12-4,61,56,53,59,54,51,94,92,91,30.10,29.97,0,0,5,0.09
2013-12-5,66,63,60,64,61,58,94,93,89,30.12,30.02,3,0,9,0.07
2013-12-6,76,69,66,65,63,61,93,82,62,30.06,29.96,6,1,13,0.05
2013-12-7,66,56,46,63,50,37,92,79,67,30.42,30.00,8,1,11,0.05
2013-12-8,46,38,35,38,35,33,91,87,73,30.45,30.31,5,1,9,0.28
2013-12-9,44,40,35,42,38,33,93,93,92,30.31,30.09,1,0,2,0.32
2013-12-10,54,44,31,48,37,18,94,78,45,30.36,29.95,4,0,9,0.20
2013-12-11,52,35,23,30,25,20,91,69,37,30.50,30.35,2,0,7,0.00
2013-12-12,48,34,24,26,20,14,89,61,27,30.47,30.34,3,0,8,0.00
2013-12-13,51,35,21,32,23,16,89,65,37,30.43,30.30,4,0,7,0.00
2013-12-14,42,40,38,38,35,31,92,84,69,30.31,29.85,8,1,9,0.82
2013-12-15,52,42,30,41,35,26,96,77,52,30.16,29.80,6,0,8,0.00
2013-12-16,58,40,27,37,30,24,91,70,40,30.22,30.13,4,0,8,0.00
2013-12-17,63,47,30,38,32,24,90,60,36,30.18,29.96,7,1,14,0.00
2013-12-18,52,39,28,25,21,14,76,50,22,30.33,30.10,3,0,10,0.00
2013-12-19,63,42,26,30,25,22,88,57,21,30.38,30.26,5,0,10,0.00
2013-12-20,60,48,36,47,40,29,89,74,62,30.28,30.17,4,0,5,0.00
2013-12-21,66,56,47,62,52,44,92,87,76,30.19,30.02,3,0,11,0.00
2013-12-22,71,65,62,66,62,60,93,89,79,30.07,29.99,7,0,10,1.22
2013-12-23,64,57,45,62,53,38,93,88,74,30.20,29.99,3,0,6,0.94
2013-12-24,46,38,28,37,27,17,87,66,39,30.49,30.19,4,0,12,0.01
2013-12-25,40,30,21,21,16,11,82,58,31,30.61,30.45,3,0,7,0.00
2013-12-26,53,35,23,28,23,19,86,66,35,30.45,30.31,3,0,5,0.00
2013-12-27,52,36,25,29,24,21,90,66,32,30.53,30.41,2,0,5,0.00
2013-12-28,51,37,23,39,29,21,90,75,43,30.46,30.19,2,0,5,0.10
2013-12-29,58,46,40,50,42,37,96,88,74,30.16,29.82,4,1,9,1.08
2013-12-30,54,42,33,44,38,31,93,86,66,30.16,29.98,0,0,3,0.00
2013-12-31,52,40,31,40,29,22,91,69,32,30.41,30.14,4,0,6,0.00
2014-1-1,50,37,28,32,28,24,88,73,46,30.44,30.20,3,0,5,0.00
2014-1-2,46,40,33,44,37,21,92,87,62,30.19,29.69,3,0,12,0.19